createdAt,value
2023-02-19T00:00:12.344Z,7.20
2023-02-19T00:02:47.126Z,8.73
2023-02-19T00:05:16.696Z,8.23
2023-02-19T00:07:47.436Z,8.43
2023-02-19T00:10:17.137Z,7.97
2023-02-19T00:12:46.115Z,9.70
2023-02-19T00:15:15.332Z,10.73
2023-02-19T00:17:44.347Z,14.70
2023-02-19T00:20:13.599Z,12.53
2023-02-19T00:22:42.475Z,10.40
2023-02-19T00:25:13.218Z,9.70
2023-02-19T00:27:42.168Z,10.40
2023-02-19T00:30:12.205Z,11.57
2023-02-19T00:32:41.412Z,12.67
2023-02-19T00:35:13.026Z,11.60
2023-02-19T00:37:42.405Z,12.67
2023-02-19T00:40:13.807Z,10.60
2023-02-19T00:42:43.297Z,10.83
2023-02-19T00:45:12.349Z,12.30
2023-02-19T00:47:41.725Z,14.83
2023-02-19T00:50:11.314Z,9.53
2023-02-19T00:52:40.900Z,11.87
2023-02-19T00:55:10.210Z,11.33
2023-02-19T00:57:41.517Z,9.33
2023-02-19T01:00:12.000Z,10.33
2023-02-19T01:02:41.151Z,9.00
2023-02-19T01:05:10.836Z,9.07
2023-02-19T01:07:41.307Z,7.07
2023-02-19T01:10:10.864Z,7.17
2023-02-19T01:12:41.547Z,6.70
2023-02-19T01:15:11.235Z,7.70
2023-02-19T01:17:41.099Z,8.00
2023-02-19T01:20:11.307Z,8.87
2023-02-19T01:22:40.337Z,10.37
2023-02-19T01:25:10.282Z,7.13
2023-02-19T01:27:41.092Z,8.20
2023-02-19T01:30:12.092Z,7.60
2023-02-19T01:32:41.800Z,8.23
2023-02-19T01:35:10.956Z,9.67
2023-02-19T01:37:40.096Z,6.93
2023-02-19T01:40:11.008Z,9.23
2023-02-19T01:42:45.848Z,5.47
2023-02-19T01:45:28.439Z,7.30
2023-02-19T01:48:13.732Z,6.13
2023-02-19T01:50:47.586Z,9.77
2023-02-19T01:53:20.821Z,5.43
2023-02-19T01:55:52.665Z,5.57
2023-02-19T01:58:23.633Z,7.03
2023-02-19T02:00:53.139Z,7.27
2023-02-19T02:03:23.040Z,6.47
2023-02-19T02:05:57.906Z,6.83
2023-02-19T02:08:45.710Z,6.90
2023-02-19T02:11:15.279Z,5.33
2023-02-19T02:13:46.395Z,10.90
2023-02-19T02:16:37.958Z,5.53
2023-02-19T02:19:19.536Z,6.20
2023-02-19T02:22:00.682Z,4.87
2023-02-19T02:25:27.265Z,6.83
2023-02-19T02:28:16.217Z,5.13
2023-02-19T02:30:52.457Z,4.93
2023-02-19T02:33:30.241Z,6.47
2023-02-19T02:36:02.580Z,5.57
2023-02-19T02:38:36.250Z,7.63
2023-02-19T02:41:06.370Z,6.17
2023-02-19T02:43:36.726Z,6.20
2023-02-19T02:46:07.770Z,5.53
2023-02-19T02:48:43.380Z,6.63
2023-02-19T02:51:20.561Z,7.53
2023-02-19T02:54:16.401Z,7.60
2023-02-19T02:56:46.959Z,7.87
2023-02-19T02:59:20.540Z,12.90
2023-02-19T03:02:14.640Z,8.17
2023-02-19T03:05:08.787Z,9.77
2023-02-19T03:07:41.868Z,8.70
2023-02-19T03:10:15.219Z,10.27
2023-02-19T03:13:04.098Z,10.33
2023-02-19T03:15:57.105Z,10.63
2023-02-19T03:19:03.363Z,7.87
2023-02-19T03:21:34.969Z,8.50
2023-02-19T03:24:23.706Z,9.30
2023-02-19T03:26:54.341Z,9.70
2023-02-19T03:29:27.693Z,9.33
2023-02-19T03:32:08.451Z,9.37
2023-02-19T03:34:43.351Z,8.83
2023-02-19T03:37:16.242Z,7.47
2023-02-19T03:39:48.745Z,9.70
2023-02-19T03:42:29.903Z,8.10
2023-02-19T03:45:11.878Z,11.83
2023-02-19T03:47:49.496Z,13.67
2023-02-19T03:50:23.069Z,11.00
2023-02-19T03:53:01.163Z,10.30
2023-02-19T03:55:35.144Z,9.93
2023-02-19T03:58:11.444Z,11.47
2023-02-19T04:00:46.330Z,11.10
2023-02-19T04:03:22.184Z,12.00
2023-02-19T04:05:56.978Z,9.83
2023-02-19T04:08:27.199Z,10.70
2023-02-19T04:11:03.220Z,12.57
2023-02-19T04:13:40.447Z,11.17
2023-02-19T04:16:14.898Z,10.57
2023-02-19T04:18:48.095Z,13.47
2023-02-19T04:21:20.441Z,13.50
2023-02-19T04:23:49.716Z,13.60
2023-02-19T04:26:21.686Z,13.70
2023-02-19T04:28:50.862Z,11.10
2023-02-19T04:31:19.820Z,17.03
2023-02-19T04:33:48.757Z,15.60
2023-02-19T04:36:19.021Z,14.97
2023-02-19T04:38:47.973Z,18.30
2023-02-19T04:41:16.799Z,15.23
2023-02-19T04:43:45.794Z,16.30
2023-02-19T04:46:14.675Z,14.47
2023-02-19T04:48:44.906Z,13.87
2023-02-19T04:51:13.857Z,14.43
2023-02-19T04:53:44.233Z,16.13
2023-02-19T04:56:15.025Z,13.83
2023-02-19T04:58:45.317Z,15.90
2023-02-19T05:01:15.519Z,15.17
2023-02-19T05:03:44.880Z,12.47
2023-02-19T05:06:15.434Z,16.07
2023-02-19T05:08:45.802Z,16.07
2023-02-19T05:11:14.545Z,17.20
2023-02-19T05:13:43.352Z,11.30
2023-02-19T05:16:16.401Z,14.47
2023-02-19T05:18:47.093Z,12.60
2023-02-19T05:21:16.576Z,10.90
2023-02-19T05:23:47.337Z,12.37
2023-02-19T05:26:19.157Z,10.77
2023-02-19T05:28:48.486Z,13.80
2023-02-19T05:31:17.441Z,10.63
2023-02-19T05:33:51.018Z,13.23
2023-02-19T05:36:21.580Z,10.50
2023-02-19T05:38:54.924Z,12.27
2023-02-19T05:41:26.064Z,14.50
2023-02-19T05:43:55.823Z,15.13
2023-02-19T05:46:27.676Z,12.93
2023-02-19T05:48:58.471Z,16.83
2023-02-19T05:51:29.060Z,15.63
2023-02-19T05:53:59.730Z,14.10
2023-02-19T05:56:35.991Z,13.83
2023-02-19T05:59:08.250Z,15.10
2023-02-19T06:01:37.991Z,13.30
2023-02-19T06:04:07.077Z,14.23
2023-02-19T06:06:35.882Z,10.53
2023-02-19T06:09:06.656Z,13.17
2023-02-19T06:11:36.368Z,10.57
2023-02-19T06:14:06.295Z,11.47
2023-02-19T06:16:35.605Z,10.77
2023-02-19T06:19:05.186Z,17.13
2023-02-19T06:21:34.632Z,12.27
2023-02-19T06:24:08.454Z,11.10
2023-02-19T06:26:38.004Z,11.53
2023-02-19T06:29:06.985Z,10.67
2023-02-19T06:31:35.871Z,12.33
2023-02-19T06:34:06.758Z,14.50
2023-02-19T06:36:35.858Z,9.47
2023-02-19T06:39:07.525Z,12.13
2023-02-19T06:41:36.407Z,13.40
2023-02-19T06:44:05.322Z,11.20
2023-02-19T06:46:34.545Z,9.17
2023-02-19T06:49:05.697Z,10.23
2023-02-19T06:51:34.973Z,5.60
2023-02-19T06:54:03.857Z,4.70
2023-02-19T06:56:35.159Z,5.60
2023-02-19T06:59:06.629Z,4.80
2023-02-19T07:01:36.973Z,4.73
2023-02-19T07:04:06.683Z,4.87
2023-02-19T07:06:36.707Z,5.33
2023-02-19T07:09:07.759Z,5.43
2023-02-19T07:11:39.855Z,5.70
2023-02-19T07:14:10.744Z,7.40
2023-02-19T07:16:39.573Z,6.50
2023-02-19T07:19:08.451Z,6.73
2023-02-19T07:21:38.198Z,6.87
2023-02-19T07:24:07.433Z,8.03
2023-02-19T07:26:38.063Z,7.93
2023-02-19T07:29:07.974Z,6.53
2023-02-19T07:31:37.051Z,5.73
2023-02-19T07:34:06.369Z,6.23
2023-02-19T07:36:35.224Z,5.07
2023-02-19T07:39:04.105Z,6.70
2023-02-19T07:41:33.798Z,6.40
2023-02-19T07:44:04.283Z,6.30
2023-02-19T07:46:33.662Z,5.43
2023-02-19T07:49:02.529Z,6.40
2023-02-19T07:51:31.654Z,5.53
2023-02-19T07:54:00.365Z,5.50
2023-02-19T07:56:30.072Z,6.50
2023-02-19T07:58:59.147Z,3.40
2023-02-19T08:01:43.129Z,8.00
2023-02-19T08:04:13.763Z,3.80
2023-02-19T08:06:43.336Z,6.57
2023-02-19T08:09:12.691Z,10.50
2023-02-19T08:11:58.855Z,6.70
2023-02-19T08:14:28.402Z,6.53
2023-02-19T08:16:59.039Z,9.77
2023-02-19T08:19:28.029Z,3.93
2023-02-19T08:21:57.459Z,4.67
2023-02-19T08:24:26.404Z,7.67
2023-02-19T08:26:55.273Z,9.63
2023-02-19T08:29:24.140Z,5.53
2023-02-19T08:31:53.390Z,8.00
2023-02-19T08:34:23.548Z,5.37
2023-02-19T08:36:52.436Z,6.03
2023-02-19T08:39:21.528Z,11.60
2023-02-19T08:41:50.842Z,9.73
2023-02-19T08:44:20.196Z,6.80
2023-02-19T08:46:48.897Z,7.80
2023-02-19T08:49:18.115Z,4.90
2023-02-19T08:51:48.465Z,6.17
2023-02-19T08:54:17.533Z,6.30
2023-02-19T08:56:46.398Z,5.50
2023-02-19T08:59:15.282Z,7.80
2023-02-19T09:01:44.725Z,5.23
2023-02-19T09:04:15.164Z,7.30
2023-02-19T09:06:44.351Z,8.10
2023-02-19T09:09:15.027Z,6.27
2023-02-19T09:11:44.492Z,7.57
2023-02-19T09:14:13.327Z,8.80
2023-02-19T09:16:42.411Z,3.63
2023-02-19T09:19:11.566Z,6.77
2023-02-19T09:21:40.847Z,7.70
2023-02-19T09:24:11.299Z,2.67
2023-02-19T09:26:41.956Z,6.83
2023-02-19T09:29:11.257Z,4.03
2023-02-19T09:31:42.012Z,8.67
2023-02-19T09:34:12.528Z,7.70
2023-02-19T09:36:42.194Z,3.83
2023-02-19T09:39:12.905Z,4.33
2023-02-19T09:41:47.205Z,5.97
2023-02-19T09:44:22.549Z,4.30
2023-02-19T09:46:53.612Z,5.83
2023-02-19T09:49:34.622Z,3.20
2023-02-19T09:52:10.514Z,7.53
2023-02-19T09:54:41.396Z,4.53
2023-02-19T09:57:17.232Z,3.60
2023-02-19T09:59:48.654Z,3.40
2023-02-19T10:02:19.727Z,1.30
2023-02-19T10:04:50.855Z,2.30
2023-02-19T10:07:23.733Z,4.00
2023-02-19T10:09:57.445Z,2.50
2023-02-19T10:12:31.165Z,3.80
2023-02-19T10:15:07.686Z,2.23
2023-02-19T10:17:37.772Z,3.20
2023-02-19T10:20:07.520Z,7.27
2023-02-19T10:22:39.603Z,5.87
2023-02-19T10:25:09.188Z,2.00
2023-02-19T10:27:40.596Z,3.07
2023-02-19T10:30:23.340Z,3.57
2023-02-19T10:33:05.559Z,2.57
2023-02-19T10:35:39.574Z,4.27
2023-02-19T10:38:08.681Z,8.37
2023-02-19T10:40:38.846Z,7.90
2023-02-19T10:43:31.636Z,3.33
2023-02-19T10:46:03.529Z,6.33
2023-02-19T10:48:36.315Z,2.40
2023-02-19T10:51:09.158Z,4.43
2023-02-19T10:53:43.531Z,5.37
2023-02-19T10:56:15.616Z,5.90
2023-02-19T10:58:47.684Z,4.77
2023-02-19T11:01:22.845Z,7.07
2023-02-19T11:03:52.813Z,3.53
2023-02-19T11:06:23.863Z,4.30
2023-02-19T11:08:56.796Z,2.30
2023-02-19T11:11:29.951Z,4.53
2023-02-19T11:14:02.631Z,4.73
2023-02-19T11:16:45.049Z,4.50
2023-02-19T11:19:27.333Z,4.37
2023-02-19T11:21:57.599Z,5.00
2023-02-19T11:24:35.507Z,6.53
2023-02-19T11:27:07.547Z,3.00
2023-02-19T11:29:37.964Z,5.93
2023-02-19T11:32:30.989Z,5.93
2023-02-19T11:35:18.154Z,2.20
2023-02-19T11:37:59.674Z,5.57
2023-02-19T11:40:42.062Z,4.30
2023-02-19T11:53:54.454Z,4.80
2023-02-19T11:56:34.058Z,7.07
2023-02-19T11:59:05.466Z,8.77
2023-02-19T12:02:06.033Z,7.00
2023-02-19T12:05:04.502Z,4.80
2023-02-19T12:08:10.605Z,4.63
2023-02-19T12:10:55.492Z,3.93
2023-02-19T12:13:32.669Z,5.67
2023-02-19T12:16:24.074Z,3.97
2023-02-19T12:19:34.972Z,2.80
2023-02-19T12:22:21.538Z,3.17
2023-02-19T12:25:11.735Z,2.10
2023-02-19T12:27:52.170Z,2.30
2023-02-19T12:30:41.107Z,2.57
2023-02-19T12:33:32.538Z,4.87
2023-02-19T12:36:12.688Z,7.27
2023-02-19T12:38:48.081Z,3.43
2023-02-19T12:41:28.913Z,2.57
2023-02-19T12:44:07.157Z,2.97
2023-02-19T12:46:39.310Z,4.67
2023-02-19T12:49:16.037Z,3.30
2023-02-19T12:51:51.202Z,4.73
2023-02-19T12:54:25.106Z,4.07
2023-02-19T12:57:02.337Z,2.87
2023-02-19T12:59:39.065Z,2.43
2023-02-19T13:02:15.705Z,1.90
2023-02-19T13:04:50.916Z,3.13
2023-02-19T13:07:40.669Z,3.43
2023-02-19T13:10:28.156Z,4.93
2023-02-19T13:13:01.923Z,3.23
2023-02-19T13:15:42.577Z,4.17
2023-02-19T13:18:18.671Z,3.80
2023-02-19T13:20:52.073Z,3.00
2023-02-19T13:23:43.042Z,10.50
2023-02-19T13:26:24.863Z,4.53
2023-02-19T13:29:08.056Z,5.67
2023-02-19T13:31:57.401Z,3.70
2023-02-19T13:34:44.806Z,4.20
2023-02-19T13:37:14.379Z,3.03
2023-02-19T13:39:50.343Z,3.33
2023-02-19T13:42:28.255Z,4.33
2023-02-19T13:44:59.421Z,5.73
2023-02-19T13:47:51.817Z,5.67
2023-02-19T13:50:23.951Z,1.93
2023-02-19T13:52:55.347Z,5.87
2023-02-19T13:55:50.569Z,5.73
2023-02-19T13:58:55.731Z,7.13
2023-02-19T14:02:06.907Z,3.90
2023-02-19T14:05:08.602Z,4.87
2023-02-19T14:07:55.913Z,2.93
2023-02-19T14:11:05.267Z,2.07
2023-02-19T14:14:11.957Z,5.07
2023-02-19T14:17:05.106Z,3.70
2023-02-19T14:20:28.942Z,3.53
2023-02-19T14:23:18.018Z,3.37
2023-02-19T14:25:58.657Z,5.77
2023-02-19T14:28:42.406Z,3.70
2023-02-19T14:31:28.163Z,4.27
2023-02-19T14:34:00.107Z,1.73
2023-02-19T14:36:44.014Z,4.57
2023-02-19T14:39:17.522Z,4.07
2023-02-19T14:41:50.381Z,2.40
2023-02-19T14:44:23.721Z,3.83
2023-02-19T14:46:59.436Z,3.43
2023-02-19T14:49:34.745Z,6.47
2023-02-19T14:52:08.707Z,3.67
2023-02-19T14:54:45.508Z,3.27
2023-02-19T14:57:19.874Z,4.63
2023-02-19T14:59:58.816Z,3.10
2023-02-19T15:02:28.692Z,5.03
2023-02-19T15:04:58.199Z,4.10
2023-02-19T15:07:32.356Z,5.20
2023-02-19T15:10:05.953Z,4.00
2023-02-19T15:12:41.243Z,5.27
2023-02-19T15:15:17.079Z,6.87
2023-02-19T15:17:46.779Z,7.40
2023-02-19T15:20:21.253Z,6.63
2023-02-19T15:22:53.468Z,8.30
2023-02-19T15:25:24.628Z,2.53
2023-02-19T15:27:59.446Z,3.10
2023-02-19T15:30:32.741Z,3.17
2023-02-19T15:33:06.768Z,5.23
2023-02-19T15:35:36.904Z,4.17
2023-02-19T15:38:13.452Z,4.33
2023-02-19T15:40:47.312Z,10.03
2023-02-19T15:43:25.463Z,4.20
2023-02-19T15:45:59.683Z,4.73
2023-02-19T15:48:33.947Z,5.60
2023-02-19T15:51:10.141Z,4.90
2023-02-19T15:53:47.024Z,7.43
2023-02-19T15:56:22.114Z,5.50
2023-02-19T15:58:56.536Z,10.93
2023-02-19T16:01:28.484Z,3.83
2023-02-19T16:06:58.429Z,3.83
2023-02-19T16:09:34.004Z,5.27
2023-02-19T16:12:04.983Z,6.30
2023-02-19T16:14:36.338Z,4.43
2023-02-19T16:17:18.610Z,6.60
2023-02-19T16:19:53.139Z,4.27
2023-02-19T16:22:24.707Z,4.30
2023-02-19T16:24:58.786Z,5.30
2023-02-19T16:27:33.106Z,5.63
2023-02-19T16:30:06.011Z,7.37
2023-02-19T16:32:35.751Z,6.77
2023-02-19T16:35:06.814Z,6.70
2023-02-19T16:37:38.214Z,10.83
2023-02-19T16:40:42.894Z,4.87
2023-02-19T16:43:33.255Z,7.53
2023-02-19T16:46:03.599Z,5.13
2023-02-19T16:48:32.915Z,5.93
2023-02-19T16:51:03.545Z,5.33
2023-02-19T16:53:34.610Z,3.43
2023-02-19T16:56:04.910Z,5.67
2023-02-19T16:58:39.945Z,6.63
2023-02-19T17:01:09.963Z,4.50
2023-02-19T17:03:40.813Z,7.83
2023-02-19T17:06:10.626Z,7.23
2023-02-19T17:09:11.806Z,5.23
2023-02-19T17:11:41.268Z,6.20
2023-02-19T17:14:13.021Z,4.00
2023-02-19T17:16:48.444Z,8.67
2023-02-19T17:19:25.039Z,4.47
2023-02-19T17:21:56.586Z,7.87
2023-02-19T17:24:28.853Z,6.90
2023-02-19T17:26:58.767Z,5.87
2023-02-19T17:29:34.230Z,5.57
2023-02-19T17:32:03.556Z,6.47
2023-02-19T17:34:34.920Z,6.97
2023-02-19T17:37:04.061Z,4.73
2023-02-19T17:39:35.515Z,8.00
2023-02-19T17:42:06.672Z,4.70
2023-02-19T17:44:37.284Z,7.27
2023-02-19T17:47:06.832Z,5.90
2023-02-19T17:49:37.307Z,9.47
2023-02-19T17:52:07.290Z,7.57
2023-02-19T17:54:38.077Z,6.73
2023-02-19T17:57:10.369Z,11.23
2023-02-19T17:59:47.181Z,10.70
2023-02-19T18:02:18.188Z,8.77
2023-02-19T18:04:47.580Z,13.70
2023-02-19T18:07:18.768Z,6.93
2023-02-19T18:09:51.743Z,7.90
2023-02-19T18:12:21.232Z,8.97
2023-02-19T18:14:53.743Z,10.13
2023-02-19T18:17:23.295Z,9.73
2023-02-19T18:19:52.977Z,5.60
2023-02-19T18:22:22.698Z,4.27
2023-02-19T18:24:53.934Z,7.23
2023-02-19T18:27:25.385Z,5.70
2023-02-19T18:29:57.980Z,6.40
2023-02-19T18:32:28.396Z,7.10
2023-02-19T18:34:59.303Z,5.47
2023-02-19T18:37:30.488Z,10.30
2023-02-19T18:40:00.768Z,3.83
2023-02-19T18:42:30.128Z,6.03
2023-02-19T18:45:01.675Z,6.30
2023-02-19T18:47:31.224Z,6.63
2023-02-19T18:50:01.146Z,5.27
2023-02-19T18:52:30.652Z,8.37
2023-02-19T18:54:59.845Z,5.17
2023-02-19T18:57:29.767Z,6.07
2023-02-19T19:00:00.737Z,4.73
2023-02-19T19:02:42.664Z,5.63
2023-02-19T19:05:21.689Z,4.53
2023-02-19T19:07:51.797Z,4.50
2023-02-19T19:10:22.691Z,3.37
2023-02-19T19:12:52.370Z,5.53
2023-02-19T19:15:24.878Z,8.33
2023-02-19T19:17:54.281Z,2.87
2023-02-19T19:20:25.272Z,6.83
2023-02-19T19:22:55.334Z,4.87
2023-02-19T19:25:24.825Z,6.50
2023-02-19T19:27:57.484Z,5.83
2023-02-19T19:30:29.097Z,3.90
2023-02-19T19:32:58.717Z,6.50
2023-02-19T19:35:29.168Z,4.80
2023-02-19T19:37:58.563Z,8.80
2023-02-19T19:40:28.639Z,5.20
2023-02-19T19:42:58.656Z,6.00
2023-02-19T19:45:29.515Z,4.37
2023-02-19T19:47:59.438Z,7.97
2023-02-19T19:50:28.999Z,11.23
2023-02-19T19:52:58.620Z,7.33
2023-02-19T19:55:28.138Z,5.97
2023-02-19T19:57:57.963Z,7.40
2023-02-19T20:00:30.244Z,8.73
2023-02-19T20:02:59.783Z,5.03
2023-02-19T20:05:29.124Z,7.10
2023-02-19T20:07:58.925Z,10.00
2023-02-19T20:10:29.396Z,5.90
2023-02-19T20:12:59.593Z,5.60
2023-02-19T20:15:30.148Z,5.67
2023-02-19T20:18:00.181Z,5.67
2023-02-19T20:20:30.148Z,4.23
2023-02-19T20:23:00.095Z,5.20
2023-02-19T20:25:29.779Z,5.50
2023-02-19T20:27:59.272Z,7.07
2023-02-19T20:30:30.450Z,3.60
2023-02-19T20:32:59.852Z,5.90
2023-02-19T20:35:30.291Z,7.30
2023-02-19T20:38:00.011Z,16.77
2023-02-19T20:40:31.552Z,6.73
2023-02-19T20:43:01.819Z,9.20
2023-02-19T20:45:33.267Z,10.37
2023-02-19T20:48:02.575Z,5.87
2023-02-19T20:50:31.940Z,8.83
2023-02-19T20:53:02.971Z,10.03
2023-02-19T20:55:32.604Z,12.53
2023-02-19T20:58:01.692Z,8.17
2023-02-19T21:00:32.456Z,9.67
2023-02-19T21:03:01.713Z,9.83
2023-02-19T21:05:30.847Z,7.87
2023-02-19T21:08:00.520Z,10.43
2023-02-19T21:10:30.037Z,11.07
2023-02-19T21:13:00.901Z,11.97
2023-02-19T21:15:30.071Z,6.23
2023-02-19T21:18:00.771Z,9.67
2023-02-19T21:20:30.386Z,14.43
2023-02-19T21:23:00.821Z,14.07
2023-02-19T21:25:31.971Z,11.53
2023-02-19T21:28:02.277Z,13.83
2023-02-19T21:30:31.504Z,14.50
2023-02-19T21:33:02.562Z,11.77
2023-02-19T21:35:32.091Z,8.37
2023-02-19T21:38:01.569Z,13.10
2023-02-19T21:40:32.613Z,12.40
2023-02-19T21:43:02.584Z,14.93
2023-02-19T21:45:32.418Z,8.17
2023-02-19T21:48:03.680Z,9.20
2023-02-19T21:50:33.393Z,12.10
2023-02-19T21:53:03.430Z,11.40
2023-02-19T21:55:34.125Z,18.10
2023-02-19T21:58:04.663Z,13.17
2023-02-19T22:00:34.104Z,9.67
2023-02-19T22:03:06.489Z,7.67
2023-02-19T22:05:36.821Z,10.20
2023-02-19T22:08:06.357Z,11.67
2023-02-19T22:10:36.370Z,12.00
2023-02-19T22:13:06.547Z,14.57
2023-02-19T22:15:36.195Z,9.93
2023-02-19T22:18:07.516Z,9.53
2023-02-19T22:20:38.825Z,14.37
2023-02-19T22:23:08.599Z,9.37
2023-02-19T22:25:37.803Z,14.37
2023-02-19T22:28:08.100Z,11.67
2023-02-19T22:30:37.756Z,10.57
2023-02-19T22:33:08.173Z,9.43
2023-02-19T22:35:37.566Z,10.30
2023-02-19T22:38:07.582Z,10.83
2023-02-19T22:40:40.509Z,11.30
2023-02-19T22:43:10.466Z,13.57
2023-02-19T22:45:39.607Z,9.53
2023-02-19T22:48:13.059Z,13.37
2023-02-19T22:50:43.866Z,10.53
2023-02-19T22:53:13.194Z,9.77
2023-02-19T22:55:42.569Z,10.27
2023-02-19T22:58:12.069Z,19.03
2023-02-19T23:00:41.594Z,10.93
2023-02-19T23:03:40.321Z,11.87
2023-02-19T23:06:11.048Z,11.50
2023-02-19T23:08:40.689Z,11.67
2023-02-19T23:11:09.996Z,8.03
2023-02-19T23:13:39.483Z,10.23
2023-02-19T23:16:09.417Z,10.67
2023-02-19T23:18:40.828Z,11.10
2023-02-19T23:21:10.387Z,16.13
2023-02-19T23:23:39.807Z,13.27
2023-02-19T23:26:09.090Z,10.97
2023-02-19T23:28:38.460Z,11.00
2023-02-19T23:31:08.581Z,13.13
2023-02-19T23:33:39.404Z,13.70
2023-02-19T23:36:10.340Z,8.27
2023-02-19T23:38:40.248Z,9.17
2023-02-19T23:41:12.303Z,9.33
2023-02-19T23:43:41.810Z,12.03
2023-02-19T23:46:12.061Z,11.10
2023-02-19T23:48:43.129Z,10.10
2023-02-19T23:51:13.469Z,9.30
2023-02-19T23:53:42.237Z,10.67
2023-02-19T23:56:11.612Z,8.67
2023-02-19T23:58:41.206Z,7.37
